Aviation Digital Data Service (ADDS)

Output produced by TAFs form (1640 UTC 02 September 2014)
found at http://aviationweather.gov/adds/tafs/
 
KHOB 021120Z 0212/0312 17009KT P6SM SKC 
     FM022200 14012G18KT P6SM SKC 
     FM030700 17010KT P6SM FEW100 
     FM031100 16007KT 5SM BR BKN030